Terminal Aerodrome Forecast
Issued by NWS

Home | Current Version | Previous Version | Text Only | Print | Product List | Glossary On
Versions: 1 2 3 4 5 6 7 8 9 10 11 12 13 14 15
481
FTPA31 PHFO 202336
TAFHNY
TAF
PHNY 202336Z 2100/2124 04023G35KT P6SM FEW020 SCT035
     FM210300 05018G33KT P6SM SCT025
     FM212100 05023G36KT P6SM FEW020 SCT030=

USA.gov is the U.S. government's official web portal to all federal, state and local government web resources and services.